sensor_id;sensor_type;location;lat;lon;timestamp;temperature;humidity
19622;DHT22;9958;33.196;-97.114;2023-04-30T00:00:41;20.80;63.40
19622;DHT22;9958;33.196;-97.114;2023-04-30T00:03:10;20.80;63.90
19622;DHT22;9958;33.196;-97.114;2023-04-30T00:05:38;20.80;63.40
19622;DHT22;9958;33.196;-97.114;2023-04-30T00:08:08;20.70;63.20
19622;DHT22;9958;33.196;-97.114;2023-04-30T00:10:36;20.70;63.40
19622;DHT22;9958;33.196;-97.114;2023-04-30T00:13:04;20.70;63.70
19622;DHT22;9958;33.196;-97.114;2023-04-30T00:15:33;20.60;63.20
19622;DHT22;9958;33.196;-97.114;2023-04-30T00:18:01;20.60;63.40
19622;DHT22;9958;33.196;-97.114;2023-04-30T00:20:30;20.50;64.50
19622;DHT22;9958;33.196;-97.114;2023-04-30T00:22:58;20.50;64.20
19622;DHT22;9958;33.196;-97.114;2023-04-30T00:25:28;20.50;65.30
19622;DHT22;9958;33.196;-97.114;2023-04-30T00:27:56;20.40;65.20
19622;DHT22;9958;33.196;-97.114;2023-04-30T00:30:24;20.40;66.00
19622;DHT22;9958;33.196;-97.114;2023-04-30T00:32:53;20.40;66.50
19622;DHT22;9958;33.196;-97.114;2023-04-30T00:35:21;20.30;66.70
19622;DHT22;9958;33.196;-97.114;2023-04-30T00:37:49;20.30;66.50
19622;DHT22;9958;33.196;-97.114;2023-04-30T00:40:19;20.20;67.60
19622;DHT22;9958;33.196;-97.114;2023-04-30T00:42:49;20.10;67.40
19622;DHT22;9958;33.196;-97.114;2023-04-30T00:45:17;20.10;67.40
19622;DHT22;9958;33.196;-97.114;2023-04-30T00:47:47;20.00;67.30
19622;DHT22;9958;33.196;-97.114;2023-04-30T00:50:16;20.00;68.20
19622;DHT22;9958;33.196;-97.114;2023-04-30T00:52:44;20.00;68.40
19622;DHT22;9958;33.196;-97.114;2023-04-30T00:55:13;19.90;68.90
19622;DHT22;9958;33.196;-97.114;2023-04-30T00:57:41;19.90;69.00
19622;DHT22;9958;33.196;-97.114;2023-04-30T01:00:12;19.80;69.20
19622;DHT22;9958;33.196;-97.114;2023-04-30T01:02:41;19.70;69.80
19622;DHT22;9958;33.196;-97.114;2023-04-30T01:05:11;19.70;70.20
19622;DHT22;9958;33.196;-97.114;2023-04-30T01:07:39;19.60;71.10
19622;DHT22;9958;33.196;-97.114;2023-04-30T01:10:10;19.50;71.20
19622;DHT22;9958;33.196;-97.114;2023-04-30T01:12:45;19.40;71.70
19622;DHT22;9958;33.196;-97.114;2023-04-30T01:15:20;19.30;72.10
19622;DHT22;9958;33.196;-97.114;2023-04-30T01:17:55;19.20;72.50
19622;DHT22;9958;33.196;-97.114;2023-04-30T01:20:26;19.20;72.60
19622;DHT22;9958;33.196;-97.114;2023-04-30T01:23:01;19.10;73.70
19622;DHT22;9958;33.196;-97.114;2023-04-30T01:25:49;19.00;74.10
19622;DHT22;9958;33.196;-97.114;2023-04-30T01:28:21;18.90;73.90
19622;DHT22;9958;33.196;-97.114;2023-04-30T01:30:50;18.80;74.40
19622;DHT22;9958;33.196;-97.114;2023-04-30T01:33:19;18.70;74.30
19622;DHT22;9958;33.196;-97.114;2023-04-30T01:36:06;18.60;73.90
19622;DHT22;9958;33.196;-97.114;2023-04-30T01:38:53;18.50;74.10
19622;DHT22;9958;33.196;-97.114;2023-04-30T01:41:29;18.50;75.10
19622;DHT22;9958;33.196;-97.114;2023-04-30T01:44:11;18.40;75.60
19622;DHT22;9958;33.196;-97.114;2023-04-30T01:46:45;18.30;76.40
19622;DHT22;9958;33.196;-97.114;2023-04-30T01:49:24;18.30;76.40
19622;DHT22;9958;33.196;-97.114;2023-04-30T01:52:02;18.20;76.50
19622;DHT22;9958;33.196;-97.114;2023-04-30T01:54:40;18.10;76.90
19622;DHT22;9958;33.196;-97.114;2023-04-30T01:57:15;18.00;77.70
19622;DHT22;9958;33.196;-97.114;2023-04-30T01:59:47;18.00;78.70
19622;DHT22;9958;33.196;-97.114;2023-04-30T02:02:15;17.90;79.60
19622;DHT22;9958;33.196;-97.114;2023-04-30T02:04:44;17.80;80.80
19622;DHT22;9958;33.196;-97.114;2023-04-30T02:07:20;17.70;82.40
19622;DHT22;9958;33.196;-97.114;2023-04-30T02:09:54;17.60;84.00
19622;DHT22;9958;33.196;-97.114;2023-04-30T02:12:22;17.50;84.30
19622;DHT22;9958;33.196;-97.114;2023-04-30T02:14:52;17.40;85.00
19622;DHT22;9958;33.196;-97.114;2023-04-30T02:17:21;17.30;85.10
19622;DHT22;9958;33.196;-97.114;2023-04-30T02:19:49;17.20;85.50
19622;DHT22;9958;33.196;-97.114;2023-04-30T02:22:17;17.10;85.10
19622;DHT22;9958;33.196;-97.114;2023-04-30T02:24:46;17.00;84.70
19622;DHT22;9958;33.196;-97.114;2023-04-30T02:27:14;17.00;85.70
19622;DHT22;9958;33.196;-97.114;2023-04-30T02:29:42;16.90;86.70
19622;DHT22;9958;33.196;-97.114;2023-04-30T02:32:12;16.80;87.60
19622;DHT22;9958;33.196;-97.114;2023-04-30T02:34:41;16.70;87.60
19622;DHT22;9958;33.196;-97.114;2023-04-30T02:37:09;16.70;87.60
19622;DHT22;9958;33.196;-97.114;2023-04-30T02:39:38;16.60;88.20
19622;DHT22;9958;33.196;-97.114;2023-04-30T02:42:06;16.50;89.10
19622;DHT22;9958;33.196;-97.114;2023-04-30T02:44:35;16.50;89.10
19622;DHT22;9958;33.196;-97.114;2023-04-30T02:47:03;16.40;90.00
19622;DHT22;9958;33.196;-97.114;2023-04-30T02:49:33;16.40;90.60
19622;DHT22;9958;33.196;-97.114;2023-04-30T02:52:01;16.30;90.80
19622;DHT22;9958;33.196;-97.114;2023-04-30T02:54:30;16.20;91.20
19622;DHT22;9958;33.196;-97.114;2023-04-30T02:56:58;16.20;91.40
19622;DHT22;9958;33.196;-97.114;2023-04-30T02:59:26;16.10;91.50
19622;DHT22;9958;33.196;-97.114;2023-04-30T03:01:55;16.00;91.70
19622;DHT22;9958;33.196;-97.114;2023-04-30T03:04:23;16.00;91.30
19622;DHT22;9958;33.196;-97.114;2023-04-30T03:06:53;15.90;91.70
19622;DHT22;9958;33.196;-97.114;2023-04-30T03:09:21;15.90;92.00
19622;DHT22;9958;33.196;-97.114;2023-04-30T03:11:49;15.80;92.20
19622;DHT22;9958;33.196;-97.114;2023-04-30T03:14:18;15.70;92.30
19622;DHT22;9958;33.196;-97.114;2023-04-30T03:16:46;15.70;92.90
19622;DHT22;9958;33.196;-97.114;2023-04-30T03:19:14;15.70;93.00
19622;DHT22;9958;33.196;-97.114;2023-04-30T03:21:43;15.60;93.30
19622;DHT22;9958;33.196;-97.114;2023-04-30T03:24:13;15.50;93.70
19622;DHT22;9958;33.196;-97.114;2023-04-30T03:26:42;15.40;94.10
19622;DHT22;9958;33.196;-97.114;2023-04-30T03:29:10;15.40;94.30
19622;DHT22;9958;33.196;-97.114;2023-04-30T03:31:38;15.40;94.50
19622;DHT22;9958;33.196;-97.114;2023-04-30T03:34:07;15.30;94.70
19622;DHT22;9958;33.196;-97.114;2023-04-30T03:36:35;15.30;94.90
19622;DHT22;9958;33.196;-97.114;2023-04-30T03:39:04;15.20;95.20
19622;DHT22;9958;33.196;-97.114;2023-04-30T03:41:34;15.10;95.60
19622;DHT22;9958;33.196;-97.114;2023-04-30T03:44:03;15.10;95.60
19622;DHT22;9958;33.196;-97.114;2023-04-30T03:46:31;15.00;95.90
19622;DHT22;9958;33.196;-97.114;2023-04-30T03:48:59;15.00;96.10
19622;DHT22;9958;33.196;-97.114;2023-04-30T03:51:28;15.00;96.00
19622;DHT22;9958;33.196;-97.114;2023-04-30T03:53:57;15.00;95.80
19622;DHT22;9958;33.196;-97.114;2023-04-30T03:56:25;15.00;95.80
19622;DHT22;9958;33.196;-97.114;2023-04-30T03:58:55;14.90;96.30
19622;DHT22;9958;33.196;-97.114;2023-04-30T04:01:23;14.90;97.10
19622;DHT22;9958;33.196;-97.114;2023-04-30T04:03:52;15.00;97.20
19622;DHT22;9958;33.196;-97.114;2023-04-30T04:06:21;14.90;97.50
19622;DHT22;9958;33.196;-97.114;2023-04-30T04:08:49;14.90;97.60
19622;DHT22;9958;33.196;-97.114;2023-04-30T04:11:17;14.90;98.00
19622;DHT22;9958;33.196;-97.114;2023-04-30T04:13:46;14.90;98.30
19622;DHT22;9958;33.196;-97.114;2023-04-30T04:16:16;14.90;98.70
19622;DHT22;9958;33.196;-97.114;2023-04-30T04:18:44;14.80;98.70
19622;DHT22;9958;33.196;-97.114;2023-04-30T04:21:12;14.80;99.10
19622;DHT22;9958;33.196;-97.114;2023-04-30T04:23:41;14.80;99.20
19622;DHT22;9958;33.196;-97.114;2023-04-30T04:26:09;14.70;99.50
19622;DHT22;9958;33.196;-97.114;2023-04-30T04:28:37;14.80;99.60
19622;DHT22;9958;33.196;-97.114;2023-04-30T04:31:06;14.70;99.70
19622;DHT22;9958;33.196;-97.114;2023-04-30T04:33:36;14.70;99.90
19622;DHT22;9958;33.196;-97.114;2023-04-30T04:36:04;14.70;99.90
19622;DHT22;9958;33.196;-97.114;2023-04-30T04:38:33;14.70;99.90
19622;DHT22;9958;33.196;-97.114;2023-04-30T04:41:01;14.60;99.90
19622;DHT22;9958;33.196;-97.114;2023-04-30T04:43:29;14.60;99.90
19622;DHT22;9958;33.196;-97.114;2023-04-30T04:45:58;14.60;99.90
19622;DHT22;9958;33.196;-97.114;2023-04-30T04:48:26;14.50;99.90
19622;DHT22;9958;33.196;-97.114;2023-04-30T04:50:56;14.50;99.90
19622;DHT22;9958;33.196;-97.114;2023-04-30T04:53:24;14.50;99.90
19622;DHT22;9958;33.196;-97.114;2023-04-30T04:55:53;14.40;99.90
19622;DHT22;9958;33.196;-97.114;2023-04-30T04:58:22;14.40;99.90
19622;DHT22;9958;33.196;-97.114;2023-04-30T05:00:50;14.40;99.90
19622;DHT22;9958;33.196;-97.114;2023-04-30T05:03:19;14.40;99.90
19622;DHT22;9958;33.196;-97.114;2023-04-30T05:05:47;14.30;99.90
19622;DHT22;9958;33.196;-97.114;2023-04-30T05:08:17;14.30;99.90
19622;DHT22;9958;33.196;-97.114;2023-04-30T05:10:45;14.30;99.90
19622;DHT22;9958;33.196;-97.114;2023-04-30T05:13:14;14.30;99.90
19622;DHT22;9958;33.196;-97.114;2023-04-30T05:15:42;14.30;99.60
19622;DHT22;9958;33.196;-97.114;2023-04-30T05:18:10;14.30;99.30
19622;DHT22;9958;33.196;-97.114;2023-04-30T05:20:39;14.30;99.00
19622;DHT22;9958;33.196;-97.114;2023-04-30T05:23:07;14.30;98.90
19622;DHT22;9958;33.196;-97.114;2023-04-30T05:25:37;14.30;98.90
19622;DHT22;9958;33.196;-97.114;2023-04-30T05:28:05;14.40;98.70
19622;DHT22;9958;33.196;-97.114;2023-04-30T05:30:34;14.40;98.50
19622;DHT22;9958;33.196;-97.114;2023-04-30T05:33:02;14.40;98.40
19622;DHT22;9958;33.196;-97.114;2023-04-30T05:35:30;14.40;98.30
19622;DHT22;9958;33.196;-97.114;2023-04-30T05:38:01;14.40;98.30
19622;DHT22;9958;33.196;-97.114;2023-04-30T05:40:29;14.40;98.40
19622;DHT22;9958;33.196;-97.114;2023-04-30T05:42:59;14.40;98.60
19622;DHT22;9958;33.196;-97.114;2023-04-30T05:45:28;14.40;98.60
19622;DHT22;9958;33.196;-97.114;2023-04-30T05:47:56;14.40;98.70
19622;DHT22;9958;33.196;-97.114;2023-04-30T05:50:24;14.40;98.90
19622;DHT22;9958;33.196;-97.114;2023-04-30T05:52:53;14.40;98.70
19622;DHT22;9958;33.196;-97.114;2023-04-30T05:55:21;14.40;98.90
19622;DHT22;9958;33.196;-97.114;2023-04-30T05:57:49;14.40;99.00
19622;DHT22;9958;33.196;-97.114;2023-04-30T06:00:19;14.40;99.10
19622;DHT22;9958;33.196;-97.114;2023-04-30T06:02:48;14.40;99.10
19622;DHT22;9958;33.196;-97.114;2023-04-30T06:05:16;14.30;99.10
19622;DHT22;9958;33.196;-97.114;2023-04-30T06:07:44;14.30;99.20
19622;DHT22;9958;33.196;-97.114;2023-04-30T06:10:13;14.30;99.70
19622;DHT22;9958;33.196;-97.114;2023-04-30T06:12:41;14.30;99.90
19622;DHT22;9958;33.196;-97.114;2023-04-30T06:15:10;14.30;99.90
19622;DHT22;9958;33.196;-97.114;2023-04-30T06:17:40;14.30;99.90
19622;DHT22;9958;33.196;-97.114;2023-04-30T06:20:09;14.20;99.90
19622;DHT22;9958;33.196;-97.114;2023-04-30T06:22:37;14.20;99.90
19622;DHT22;9958;33.196;-97.114;2023-04-30T06:25:07;14.10;99.90
19622;DHT22;9958;33.196;-97.114;2023-04-30T06:27:36;14.10;99.90
19622;DHT22;9958;33.196;-97.114;2023-04-30T06:30:05;14.10;99.90
19622;DHT22;9958;33.196;-97.114;2023-04-30T06:32:34;14.00;99.90
19622;DHT22;9958;33.196;-97.114;2023-04-30T06:35:04;14.00;99.90
19622;DHT22;9958;33.196;-97.114;2023-04-30T06:37:33;14.00;99.90
19622;DHT22;9958;33.196;-97.114;2023-04-30T06:40:03;13.90;99.90
19622;DHT22;9958;33.196;-97.114;2023-04-30T06:42:32;13.90;99.90
19622;DHT22;9958;33.196;-97.114;2023-04-30T06:45:01;13.80;99.90
19622;DHT22;9958;33.196;-97.114;2023-04-30T06:47:30;13.80;99.90
19622;DHT22;9958;33.196;-97.114;2023-04-30T06:50:03;13.80;99.90
19622;DHT22;9958;33.196;-97.114;2023-04-30T06:52:34;13.70;99.90
19622;DHT22;9958;33.196;-97.114;2023-04-30T06:55:03;13.70;99.90
19622;DHT22;9958;33.196;-97.114;2023-04-30T06:57:31;13.70;99.90
19622;DHT22;9958;33.196;-97.114;2023-04-30T07:00:02;13.60;99.90
19622;DHT22;9958;33.196;-97.114;2023-04-30T07:02:31;13.60;99.90
19622;DHT22;9958;33.196;-97.114;2023-04-30T07:04:59;13.60;99.90
19622;DHT22;9958;33.196;-97.114;2023-04-30T07:07:29;13.50;99.90
19622;DHT22;9958;33.196;-97.114;2023-04-30T07:09:58;13.50;99.90
19622;DHT22;9958;33.196;-97.114;2023-04-30T07:12:29;13.40;99.90
19622;DHT22;9958;33.196;-97.114;2023-04-30T07:14:57;13.40;99.90
19622;DHT22;9958;33.196;-97.114;2023-04-30T07:17:26;13.30;99.90
19622;DHT22;9958;33.196;-97.114;2023-04-30T07:19:54;13.30;99.90
19622;DHT22;9958;33.196;-97.114;2023-04-30T07:22:23;13.30;99.90
19622;DHT22;9958;33.196;-97.114;2023-04-30T07:24:53;13.20;99.90
19622;DHT22;9958;33.196;-97.114;2023-04-30T07:27:21;13.20;99.90
19622;DHT22;9958;33.196;-97.114;2023-04-30T07:29:51;13.20;99.90
19622;DHT22;9958;33.196;-97.114;2023-04-30T07:32:19;13.20;99.90
19622;DHT22;9958;33.196;-97.114;2023-04-30T07:34:47;13.20;99.90
19622;DHT22;9958;33.196;-97.114;2023-04-30T07:37:16;13.20;99.90
19622;DHT22;9958;33.196;-97.114;2023-04-30T07:39:45;13.20;99.90
19622;DHT22;9958;33.196;-97.114;2023-04-30T07:42:14;13.10;99.90
19622;DHT22;9958;33.196;-97.114;2023-04-30T07:44:43;13.10;99.90
19622;DHT22;9958;33.196;-97.114;2023-04-30T07:47:11;13.10;99.90
19622;DHT22;9958;33.196;-97.114;2023-04-30T07:49:40;13.10;99.90
19622;DHT22;9958;33.196;-97.114;2023-04-30T07:52:08;13.20;99.90
19622;DHT22;9958;33.196;-97.114;2023-04-30T07:54:37;13.20;99.90
19622;DHT22;9958;33.196;-97.114;2023-04-30T07:57:06;13.20;99.90
19622;DHT22;9958;33.196;-97.114;2023-04-30T07:59:36;13.30;99.90
19622;DHT22;9958;33.196;-97.114;2023-04-30T08:02:04;13.30;99.90
19622;DHT22;9958;33.196;-97.114;2023-04-30T08:04:33;13.30;99.90
19622;DHT22;9958;33.196;-97.114;2023-04-30T08:07:01;13.30;99.90
19622;DHT22;9958;33.196;-97.114;2023-04-30T08:09:30;13.30;99.90
19622;DHT22;9958;33.196;-97.114;2023-04-30T08:11:59;13.30;99.90
19622;DHT22;9958;33.196;-97.114;2023-04-30T08:14:31;13.30;99.90
19622;DHT22;9958;33.196;-97.114;2023-04-30T08:17:01;13.30;99.90
19622;DHT22;9958;33.196;-97.114;2023-04-30T08:19:29;13.30;99.90
19622;DHT22;9958;33.196;-97.114;2023-04-30T08:21:58;13.30;99.90
19622;DHT22;9958;33.196;-97.114;2023-04-30T08:24:27;13.30;99.90
19622;DHT22;9958;33.196;-97.114;2023-04-30T08:26:55;13.30;99.90
19622;DHT22;9958;33.196;-97.114;2023-04-30T08:29:24;13.30;99.90
19622;DHT22;9958;33.196;-97.114;2023-04-30T08:31:52;13.30;99.90
19622;DHT22;9958;33.196;-97.114;2023-04-30T08:34:22;13.30;99.90
19622;DHT22;9958;33.196;-97.114;2023-04-30T08:36:51;13.30;99.90
19622;DHT22;9958;33.196;-97.114;2023-04-30T08:39:19;13.30;99.90
19622;DHT22;9958;33.196;-97.114;2023-04-30T08:41:51;13.30;99.90
19622;DHT22;9958;33.196;-97.114;2023-04-30T08:44:22;13.20;99.90
19622;DHT22;9958;33.196;-97.114;2023-04-30T08:46:52;13.20;99.90
19622;DHT22;9958;33.196;-97.114;2023-04-30T08:49:23;13.20;99.90
19622;DHT22;9958;33.196;-97.114;2023-04-30T08:51:53;13.20;99.90
19622;DHT22;9958;33.196;-97.114;2023-04-30T08:54:24;13.20;99.90
19622;DHT22;9958;33.196;-97.114;2023-04-30T08:56:53;13.20;99.90
19622;DHT22;9958;33.196;-97.114;2023-04-30T08:59:22;13.10;99.90
19622;DHT22;9958;33.196;-97.114;2023-04-30T09:01:50;13.10;99.90
19622;DHT22;9958;33.196;-97.114;2023-04-30T09:04:19;13.10;99.90
19622;DHT22;9958;33.196;-97.114;2023-04-30T09:06:52;13.00;99.90
19622;DHT22;9958;33.196;-97.114;2023-04-30T09:09:27;13.00;99.90
19622;DHT22;9958;33.196;-97.114;2023-04-30T09:12:11;13.00;99.90
19622;DHT22;9958;33.196;-97.114;2023-04-30T09:14:40;12.90;99.90
19622;DHT22;9958;33.196;-97.114;2023-04-30T09:17:09;12.90;99.90
19622;DHT22;9958;33.196;-97.114;2023-04-30T09:19:48;12.90;99.90
19622;DHT22;9958;33.196;-97.114;2023-04-30T09:22:20;12.80;99.90
19622;DHT22;9958;33.196;-97.114;2023-04-30T09:24:50;12.80;99.90
19622;DHT22;9958;33.196;-97.114;2023-04-30T09:27:20;12.80;99.90
19622;DHT22;9958;33.196;-97.114;2023-04-30T09:29:49;12.80;99.90
19622;DHT22;9958;33.196;-97.114;2023-04-30T09:32:18;12.70;99.90
19622;DHT22;9958;33.196;-97.114;2023-04-30T09:34:46;12.70;99.90
19622;DHT22;9958;33.196;-97.114;2023-04-30T09:37:14;12.70;99.90
19622;DHT22;9958;33.196;-97.114;2023-04-30T09:39:48;12.60;99.90
19622;DHT22;9958;33.196;-97.114;2023-04-30T09:42:17;12.60;99.90
19622;DHT22;9958;33.196;-97.114;2023-04-30T09:44:46;12.60;99.90
19622;DHT22;9958;33.196;-97.114;2023-04-30T09:47:15;12.50;99.90
19622;DHT22;9958;33.196;-97.114;2023-04-30T09:49:47;12.50;99.90
19622;DHT22;9958;33.196;-97.114;2023-04-30T09:52:17;12.50;99.90
19622;DHT22;9958;33.196;-97.114;2023-04-30T09:54:48;12.40;99.90
19622;DHT22;9958;33.196;-97.114;2023-04-30T09:57:16;12.40;99.90
19622;DHT22;9958;33.196;-97.114;2023-04-30T09:59:48;12.40;99.90
19622;DHT22;9958;33.196;-97.114;2023-04-30T10:02:18;12.30;99.90
19622;DHT22;9958;33.196;-97.114;2023-04-30T10:04:52;12.30;99.90
19622;DHT22;9958;33.196;-97.114;2023-04-30T10:07:24;12.30;99.90
19622;DHT22;9958;33.196;-97.114;2023-04-30T10:10:01;12.20;99.90
19622;DHT22;9958;33.196;-97.114;2023-04-30T10:12:38;12.20;99.90
19622;DHT22;9958;33.196;-97.114;2023-04-30T10:15:12;12.30;99.90
19622;DHT22;9958;33.196;-97.114;2023-04-30T10:17:53;12.20;99.90
19622;DHT22;9958;33.196;-97.114;2023-04-30T10:20:23;12.30;99.90
19622;DHT22;9958;33.196;-97.114;2023-04-30T10:22:53;12.30;99.90
19622;DHT22;9958;33.196;-97.114;2023-04-30T10:25:23;12.30;99.90
19622;DHT22;9958;33.196;-97.114;2023-04-30T10:27:53;12.30;99.90
19622;DHT22;9958;33.196;-97.114;2023-04-30T10:30:22;12.30;99.90
19622;DHT22;9958;33.196;-97.114;2023-04-30T10:33:05;12.30;99.90
19622;DHT22;9958;33.196;-97.114;2023-04-30T10:35:44;12.40;99.90
19622;DHT22;9958;33.196;-97.114;2023-04-30T10:38:20;12.40;99.90
19622;DHT22;9958;33.196;-97.114;2023-04-30T10:40:54;12.40;99.90
19622;DHT22;9958;33.196;-97.114;2023-04-30T10:43:24;12.50;99.90
19622;DHT22;9958;33.196;-97.114;2023-04-30T10:45:52;12.50;99.90
19622;DHT22;9958;33.196;-97.114;2023-04-30T10:48:22;12.50;99.90
19622;DHT22;9958;33.196;-97.114;2023-04-30T10:50:54;12.50;99.90
19622;DHT22;9958;33.196;-97.114;2023-04-30T10:53:24;12.50;99.90
19622;DHT22;9958;33.196;-97.114;2023-04-30T10:55:57;12.50;99.90
19622;DHT22;9958;33.196;-97.114;2023-04-30T10:58:32;12.50;99.90
19622;DHT22;9958;33.196;-97.114;2023-04-30T11:01:05;12.50;99.90
19622;DHT22;9958;33.196;-97.114;2023-04-30T11:03:34;12.50;99.90
19622;DHT22;9958;33.196;-97.114;2023-04-30T11:06:08;12.50;99.90
19622;DHT22;9958;33.196;-97.114;2023-04-30T11:08:39;12.60;99.90
19622;DHT22;9958;33.196;-97.114;2023-04-30T11:11:12;12.60;99.90
19622;DHT22;9958;33.196;-97.114;2023-04-30T11:13:47;12.60;99.90
19622;DHT22;9958;33.196;-97.114;2023-04-30T11:16:28;12.60;99.90
19622;DHT22;9958;33.196;-97.114;2023-04-30T11:19:05;12.60;99.90
19622;DHT22;9958;33.196;-97.114;2023-04-30T11:21:33;12.60;99.90
19622;DHT22;9958;33.196;-97.114;2023-04-30T11:24:06;12.60;99.90
19622;DHT22;9958;33.196;-97.114;2023-04-30T11:27:03;12.60;99.90
19622;DHT22;9958;33.196;-97.114;2023-04-30T11:29:32;12.50;99.90
19622;DHT22;9958;33.196;-97.114;2023-04-30T11:32:01;12.50;99.90
19622;DHT22;9958;33.196;-97.114;2023-04-30T11:34:31;12.40;99.90
19622;DHT22;9958;33.196;-97.114;2023-04-30T11:37:02;12.40;99.90
19622;DHT22;9958;33.196;-97.114;2023-04-30T11:39:32;12.40;99.90
19622;DHT22;9958;33.196;-97.114;2023-04-30T11:42:04;12.30;99.90
19622;DHT22;9958;33.196;-97.114;2023-04-30T11:44:33;12.30;99.90
19622;DHT22;9958;33.196;-97.114;2023-04-30T11:47:01;12.30;99.90
19622;DHT22;9958;33.196;-97.114;2023-04-30T11:49:30;12.30;99.90
19622;DHT22;9958;33.196;-97.114;2023-04-30T11:51:58;12.20;99.90
19622;DHT22;9958;33.196;-97.114;2023-04-30T11:54:30;12.20;99.90
19622;DHT22;9958;33.196;-97.114;2023-04-30T11:56:58;12.20;99.90
19622;DHT22;9958;33.196;-97.114;2023-04-30T11:59:31;12.20;99.90
19622;DHT22;9958;33.196;-97.114;2023-04-30T12:01:59;12.20;99.90
19622;DHT22;9958;33.196;-97.114;2023-04-30T12:04:27;12.20;99.90
19622;DHT22;9958;33.196;-97.114;2023-04-30T12:06:56;12.20;99.90
19622;DHT22;9958;33.196;-97.114;2023-04-30T12:09:24;12.10;99.90
19622;DHT22;9958;33.196;-97.114;2023-04-30T12:11:52;12.10;99.90
19622;DHT22;9958;33.196;-97.114;2023-04-30T12:14:24;12.20;99.90
19622;DHT22;9958;33.196;-97.114;2023-04-30T12:16:54;12.20;99.90
19622;DHT22;9958;33.196;-97.114;2023-04-30T12:19:22;12.20;99.90
19622;DHT22;9958;33.196;-97.114;2023-04-30T12:21:53;12.30;99.90
19622;DHT22;9958;33.196;-97.114;2023-04-30T12:24:26;12.30;99.90
19622;DHT22;9958;33.196;-97.114;2023-04-30T12:26:55;12.40;99.90
19622;DHT22;9958;33.196;-97.114;2023-04-30T12:29:27;12.80;99.90
19622;DHT22;9958;33.196;-97.114;2023-04-30T12:31:57;13.60;99.90
19622;DHT22;9958;33.196;-97.114;2023-04-30T12:34:26;14.60;99.90
19622;DHT22;9958;33.196;-97.114;2023-04-30T12:36:57;16.00;99.90
19622;DHT22;9958;33.196;-97.114;2023-04-30T12:39:32;17.60;99.90
19622;DHT22;9958;33.196;-97.114;2023-04-30T12:42:01;19.30;99.90
19622;DHT22;9958;33.196;-97.114;2023-04-30T12:44:30;20.80;99.90
19622;DHT22;9958;33.196;-97.114;2023-04-30T12:47:06;22.20;99.80
19622;DHT22;9958;33.196;-97.114;2023-04-30T12:49:35;23.60;96.70
19622;DHT22;9958;33.196;-97.114;2023-04-30T12:52:04;24.70;93.50
19622;DHT22;9958;33.196;-97.114;2023-04-30T12:54:34;25.60;89.70
19622;DHT22;9958;33.196;-97.114;2023-04-30T12:57:04;26.00;87.20
19622;DHT22;9958;33.196;-97.114;2023-04-30T12:59:35;26.00;81.70
19622;DHT22;9958;33.196;-97.114;2023-04-30T13:02:10;25.80;82.90
19622;DHT22;9958;33.196;-97.114;2023-04-30T13:04:39;25.40;80.60
19622;DHT22;9958;33.196;-97.114;2023-04-30T13:07:07;24.90;79.90
19622;DHT22;9958;33.196;-97.114;2023-04-30T13:09:36;24.30;81.20
19622;DHT22;9958;33.196;-97.114;2023-04-30T13:12:05;23.70;84.60
19622;DHT22;9958;33.196;-97.114;2023-04-30T13:14:34;23.30;84.90
19622;DHT22;9958;33.196;-97.114;2023-04-30T13:17:03;22.70;85.40
19622;DHT22;9958;33.196;-97.114;2023-04-30T13:19:34;22.30;89.60
19622;DHT22;9958;33.196;-97.114;2023-04-30T13:22:02;21.80;89.50
19622;DHT22;9958;33.196;-97.114;2023-04-30T13:24:30;21.40;90.40
19622;DHT22;9958;33.196;-97.114;2023-04-30T13:26:59;21.10;91.00
19622;DHT22;9958;33.196;-97.114;2023-04-30T13:29:28;20.80;90.80
19622;DHT22;9958;33.196;-97.114;2023-04-30T13:31:56;20.50;91.20
19622;DHT22;9958;33.196;-97.114;2023-04-30T13:34:25;20.30;92.60
19622;DHT22;9958;33.196;-97.114;2023-04-30T13:36:55;20.10;92.60
19622;DHT22;9958;33.196;-97.114;2023-04-30T13:39:23;20.00;92.20
19622;DHT22;9958;33.196;-97.114;2023-04-30T13:41:51;19.90;93.40
19622;DHT22;9958;33.196;-97.114;2023-04-30T13:44:20;19.70;92.30
19622;DHT22;9958;33.196;-97.114;2023-04-30T13:46:48;19.70;92.50
19622;DHT22;9958;33.196;-97.114;2023-04-30T13:49:16;19.70;92.20
19622;DHT22;9958;33.196;-97.114;2023-04-30T13:51:45;19.60;93.10
19622;DHT22;9958;33.196;-97.114;2023-04-30T13:54:15;19.60;94.50
19622;DHT22;9958;33.196;-97.114;2023-04-30T13:56:43;19.70;95.00
19622;DHT22;9958;33.196;-97.114;2023-04-30T13:59:11;19.70;95.10
19622;DHT22;9958;33.196;-97.114;2023-04-30T14:01:40;19.70;93.90
19622;DHT22;9958;33.196;-97.114;2023-04-30T14:04:08;19.90;93.80
19622;DHT22;9958;33.196;-97.114;2023-04-30T14:06:36;19.90;94.00
19622;DHT22;9958;33.196;-97.114;2023-04-30T14:09:05;20.00;93.90
19622;DHT22;9958;33.196;-97.114;2023-04-30T14:11:35;20.00;94.20
19622;DHT22;9958;33.196;-97.114;2023-04-30T14:14:03;20.10;94.80
19622;DHT22;9958;33.196;-97.114;2023-04-30T14:16:31;20.20;95.80
19622;DHT22;9958;33.196;-97.114;2023-04-30T14:19:00;20.30;96.10
19622;DHT22;9958;33.196;-97.114;2023-04-30T14:21:28;20.40;94.80
19622;DHT22;9958;33.196;-97.114;2023-04-30T14:23:57;20.50;94.50
19622;DHT22;9958;33.196;-97.114;2023-04-30T14:26:25;20.60;94.30
19622;DHT22;9958;33.196;-97.114;2023-04-30T14:28:56;20.70;95.20
19622;DHT22;9958;33.196;-97.114;2023-04-30T14:31:24;20.90;93.60
19622;DHT22;9958;33.196;-97.114;2023-04-30T14:33:52;20.80;92.20
19622;DHT22;9958;33.196;-97.114;2023-04-30T14:36:21;21.00;93.80
19622;DHT22;9958;33.196;-97.114;2023-04-30T14:38:49;21.10;93.30
19622;DHT22;9958;33.196;-97.114;2023-04-30T14:41:17;21.20;95.10
19622;DHT22;9958;33.196;-97.114;2023-04-30T14:43:46;21.40;94.90
19622;DHT22;9958;33.196;-97.114;2023-04-30T14:46:16;21.50;94.80
19622;DHT22;9958;33.196;-97.114;2023-04-30T14:48:44;21.70;95.10
19622;DHT22;9958;33.196;-97.114;2023-04-30T14:51:13;21.80;95.60
19622;DHT22;9958;33.196;-97.114;2023-04-30T14:53:41;22.00;93.90
19622;DHT22;9958;33.196;-97.114;2023-04-30T14:56:10;22.20;93.50
19622;DHT22;9958;33.196;-97.114;2023-04-30T14:58:38;22.20;91.30
19622;DHT22;9958;33.196;-97.114;2023-04-30T15:01:06;22.40;93.40
19622;DHT22;9958;33.196;-97.114;2023-04-30T15:03:36;22.40;91.30
19622;DHT22;9958;33.196;-97.114;2023-04-30T15:06:05;22.50;90.50
19622;DHT22;9958;33.196;-97.114;2023-04-30T15:08:33;22.60;92.80
19622;DHT22;9958;33.196;-97.114;2023-04-30T15:11:02;22.70;92.40
19622;DHT22;9958;33.196;-97.114;2023-04-30T15:13:32;22.80;90.80
19622;DHT22;9958;33.196;-97.114;2023-04-30T15:16:00;22.90;90.90
19622;DHT22;9958;33.196;-97.114;2023-04-30T15:18:29;23.00;91.10
19622;DHT22;9958;33.196;-97.114;2023-04-30T15:20:59;23.10;91.30
19622;DHT22;9958;33.196;-97.114;2023-04-30T15:23:27;23.20;90.80
19622;DHT22;9958;33.196;-97.114;2023-04-30T15:25:55;23.30;92.00
19622;DHT22;9958;33.196;-97.114;2023-04-30T15:28:24;23.40;92.90
19622;DHT22;9958;33.196;-97.114;2023-04-30T15:30:52;23.60;91.80